Sparta, WI (54656)

1:14 AM CDT on June 29, 2017 (GMT -0500)
Sparta-Fort McCoy | | Change Station

Elev 837 ft 43.96 °N, 90.74 °W | Updated 19 minutes ago

Partly Cloudy
Partly Cloudy
64 °F
Feels Like 64 °F
N
4
Wind Variable Wind from SW

Today
High -- | Low -- °F
--% Chance of Precip.
Yesterday
High -- | Low -- °F
Precip. -- in
Pressure 29.65 in
Visibility 10.0 miles
Clouds Mostly Cloudy 8000 ft
Overcast 10000 ft
Dew Point 64 °F
Humidity 97%
Rainfall 0.00 in
Snow Depth Not available.
5:23 AM 8:49 PM
Waxing Crescent, 32% visible
METAR KCMY 290555Z AUTO 23003KT 10SM BKN080 OVC100 18/18 A2965 RMK AO2 60007 T01800175 10205 20177 402110156
Pressure 29.65 in
Visibility 10.0 miles
Clouds Mostly Cloudy 8000 ft
Overcast 10000 ft
Dew Point 64 °F
Humidity 97%
Rainfall 0.00 in
Snow Depth Not available.
5:23 AM 8:49 PM
Waxing Crescent, 32% visible
METAR KCMY 290555Z AUTO 23003KT 10SM BKN080 OVC100 18/18 A2965 RMK AO2 60007 T01800175 10205 20177 402110156

Get Severe Weather Alerts

Thanks for signing up!

Be on the lookout for a verification email in your inbox.

You'll start receiving the daily forecast at 6 AM.

×

10-Day Weather Forecast

Almanac

Astronomy

Jun. 29, 2017 Rise Set
Actual Time
Civil Twilight
Nautical Twilight
Astronomical Twilight
Moon
Length of Visible Light
Length of Day
Tomorrow will be .
, % of the Moon is Illuminated

Today's Extremes

State Highs State Lows

Community

WunderPhotos

Category 6

Welcome to Category 6. This is the collective home for Weather Underground's featured writeups by Dr. Jeff Masters (right), Bob Henson (left), Chris Burt, and other regular contributors.

Nearby

Air Quality

  Air Quality AQ Index Pollutant
Not available.

Snow Depth

Station Depth Elevation

Earthquake Activity

City Distance Mag. Time & Date
Minimum magnitude displayed is 2.5.

Coastal Water Temperatures

Place Temperature

Stations

Nearby Weather Stations

Station Location Temp. Windchill Dew Point Humidity Wind Precip. Elev Updated Type
                   

Watches & Warnings

There are currently no watches in effect.